createdAt,value
2022-08-22T00:00:34.381Z,79.74
2022-08-22T00:01:34.396Z,79.44
2022-08-22T00:02:34.448Z,79.34
2022-08-22T00:02:57.843Z,77.10
2022-08-22T00:03:34.361Z,78.28
2022-08-22T00:04:35.190Z,78.19
2022-08-22T00:05:34.340Z,77.54
2022-08-22T00:06:34.257Z,77.54
2022-08-22T00:07:34.340Z,77.03
2022-08-22T00:08:34.270Z,76.70
2022-08-22T00:09:34.270Z,76.09
2022-08-22T00:10:34.251Z,76.19
2022-08-22T00:11:34.905Z,75.79
2022-08-22T00:12:34.260Z,75.99
2022-08-22T00:13:34.246Z,76.05
2022-08-22T00:14:34.211Z,75.75
2022-08-22T00:15:43.368Z,75.95
2022-08-22T00:16:35.177Z,75.95
2022-08-22T00:17:34.247Z,76.56
2022-08-22T00:18:34.226Z,76.29
2022-08-22T00:19:34.188Z,75.75
2022-08-22T00:20:34.222Z,76.26
2022-08-22T00:21:34.167Z,76.56
2022-08-22T00:22:34.166Z,76.76
2022-08-22T00:23:34.309Z,76.79
2022-08-22T00:24:34.234Z,76.70
2022-08-22T00:25:34.252Z,76.90
2022-08-22T00:26:34.202Z,77.00
2022-08-22T00:27:34.185Z,77.44
2022-08-22T00:28:34.196Z,77.84
2022-08-22T00:29:34.212Z,77.98
2022-08-22T00:30:34.162Z,78.69
2022-08-22T00:31:34.222Z,79.13
2022-08-22T00:32:34.197Z,79.44
2022-08-22T00:33:34.186Z,80.55
2022-08-22T00:34:34.179Z,81.67
2022-08-22T00:35:34.189Z,81.91
2022-08-22T00:36:34.131Z,82.31
2022-08-22T00:37:34.135Z,82.11
2022-08-22T00:38:34.123Z,82.01
2022-08-22T00:39:34.118Z,82.52
2022-08-22T00:40:34.190Z,82.11
2022-08-22T00:41:34.107Z,82.56
2022-08-22T00:42:34.124Z,82.01
2022-08-22T00:43:34.084Z,81.74
2022-08-22T00:44:34.121Z,82.05
2022-08-22T00:45:34.041Z,82.05
2022-08-22T00:46:34.053Z,82.15
2022-08-22T00:47:34.068Z,82.05
2022-08-22T00:48:34.052Z,81.74
2022-08-22T00:49:34.022Z,81.95
2022-08-22T00:50:34.072Z,82.05
2022-08-22T00:51:34.048Z,81.48
2022-08-22T00:52:34.012Z,82.19
2022-08-22T00:53:34.009Z,82.25
2022-08-22T00:54:34.050Z,82.90
2022-08-22T00:55:34.911Z,83.14
2022-08-22T00:56:34.144Z,84.30
2022-08-22T00:57:33.985Z,84.20
2022-08-22T00:58:34.045Z,85.15
2022-08-22T00:59:33.997Z,85.15
2022-08-22T01:00:35.252Z,86.37
2022-08-22T01:01:34.073Z,85.76
2022-08-22T01:02:33.931Z,85.62
2022-08-22T01:03:33.967Z,84.70
2022-08-22T01:04:33.933Z,84.60
2022-08-22T01:05:33.941Z,83.95
2022-08-22T01:06:33.960Z,82.64
2022-08-22T01:07:38.008Z,82.94
2022-08-22T01:08:33.904Z,82.59
2022-08-22T01:09:33.914Z,82.50
2022-08-22T01:10:33.909Z,82.35
2022-08-22T01:11:33.899Z,81.95
2022-08-22T01:12:33.935Z,82.15
2022-08-22T01:13:33.861Z,81.85
2022-08-22T01:14:34.990Z,81.64
2022-08-22T01:15:33.785Z,81.85
2022-08-22T01:16:33.760Z,81.85
2022-08-22T01:17:33.964Z,81.85
2022-08-22T01:18:33.815Z,81.18
2022-08-22T01:19:33.765Z,81.62
2022-08-22T01:20:33.775Z,81.92
2022-08-22T01:21:33.819Z,82.37
2022-08-22T01:22:33.859Z,82.87
2022-08-22T01:23:33.834Z,83.08
2022-08-22T01:24:33.799Z,82.71
2022-08-22T01:25:33.798Z,82.61
2022-08-22T01:26:33.790Z,83.12
2022-08-22T01:27:33.758Z,83.22
2022-08-22T01:28:34.848Z,83.01
2022-08-22T01:29:33.744Z,82.92
2022-08-22T01:30:33.796Z,83.12
2022-08-22T01:31:33.742Z,82.98
2022-08-22T01:32:33.823Z,82.57
2022-08-22T01:33:33.806Z,82.57
2022-08-22T01:34:33.746Z,82.98
2022-08-22T01:35:33.731Z,82.67
2022-08-22T01:36:33.722Z,82.67
2022-08-22T01:37:33.693Z,82.87
2022-08-22T01:38:33.746Z,82.78
2022-08-22T01:39:33.698Z,82.98
2022-08-22T01:40:33.717Z,82.98
2022-08-22T01:41:33.682Z,83.18
2022-08-22T01:42:33.738Z,82.98
2022-08-22T01:43:51.287Z,82.53
2022-08-22T01:44:34.623Z,82.87
2022-08-22T01:45:33.563Z,82.57
2022-08-22T01:46:33.668Z,82.43
2022-08-22T01:47:36.751Z,82.64
2022-08-22T01:48:33.629Z,82.98
2022-08-22T01:49:33.663Z,84.34
2022-08-22T01:50:33.677Z,84.17
2022-08-22T01:51:33.619Z,84.74
2022-08-22T01:52:33.585Z,84.74
2022-08-22T01:53:33.590Z,84.23
2022-08-22T01:54:33.604Z,84.44
2022-08-22T01:55:33.624Z,84.34
2022-08-22T01:56:33.571Z,84.34
2022-08-22T01:57:33.571Z,84.54
2022-08-22T01:58:33.546Z,84.54
2022-08-22T01:59:34.075Z,84.44
2022-08-22T02:00:35.785Z,83.83
2022-08-22T02:01:33.555Z,84.40
2022-08-22T02:02:33.573Z,84.40
2022-08-22T02:03:33.608Z,84.40
2022-08-22T02:04:33.513Z,83.79
2022-08-22T02:05:33.612Z,84.20
2022-08-22T02:06:33.486Z,84.26
2022-08-22T02:07:33.588Z,83.65
2022-08-22T02:08:33.502Z,84.05
2022-08-22T02:09:33.471Z,83.14
2022-08-22T02:10:33.526Z,83.24
2022-08-22T02:11:33.477Z,83.24
2022-08-22T02:12:33.485Z,84.20
2022-08-22T02:13:33.471Z,83.99
2022-08-22T02:14:33.378Z,84.20
2022-08-22T02:15:33.375Z,83.99
2022-08-22T02:16:33.396Z,83.08
2022-08-22T02:17:33.351Z,83.08
2022-08-22T02:18:33.343Z,83.38
2022-08-22T02:19:33.367Z,84.54
2022-08-22T02:20:33.348Z,84.20
2022-08-22T02:21:33.395Z,84.54
2022-08-22T02:22:33.305Z,83.93
2022-08-22T02:23:33.336Z,83.42
2022-08-22T02:24:33.348Z,83.93
2022-08-22T02:25:33.350Z,84.64
2022-08-22T02:26:33.302Z,85.80
2022-08-22T02:27:33.325Z,86.15
2022-08-22T02:28:33.280Z,86.76
2022-08-22T02:29:33.223Z,86.86
2022-08-22T02:30:33.266Z,87.20
2022-08-22T02:31:33.251Z,87.57
2022-08-22T02:32:33.355Z,87.30
2022-08-22T02:33:34.049Z,87.06
2022-08-22T02:34:33.224Z,86.45
2022-08-22T02:35:33.316Z,85.70
2022-08-22T02:36:33.320Z,85.84
2022-08-22T02:37:33.313Z,84.78
2022-08-22T02:38:33.299Z,84.92
2022-08-22T02:39:33.303Z,84.68
2022-08-22T02:40:33.247Z,84.38
2022-08-22T02:41:34.287Z,84.01
2022-08-22T02:42:33.217Z,84.25
2022-08-22T02:43:33.292Z,84.76
2022-08-22T02:44:33.232Z,85.17
2022-08-22T02:45:33.152Z,85.43
2022-08-22T02:46:33.221Z,85.43
2022-08-22T02:47:33.296Z,85.64
2022-08-22T02:48:33.271Z,85.33
2022-08-22T02:49:33.245Z,85.53
2022-08-22T02:50:33.220Z,85.19
2022-08-22T02:51:33.210Z,84.72
2022-08-22T02:52:34.093Z,84.38
2022-08-22T02:53:33.327Z,84.28
2022-08-22T02:54:33.178Z,84.48
2022-08-22T02:55:33.158Z,84.58
2022-08-22T02:56:33.169Z,84.58
2022-08-22T02:57:36.132Z,84.58
2022-08-22T02:58:35.198Z,84.23
2022-08-22T02:59:33.158Z,84.95
2022-08-22T03:00:33.410Z,84.44
2022-08-22T03:01:34.117Z,84.78
2022-08-22T03:02:33.095Z,84.74
2022-08-22T03:03:33.094Z,84.95
2022-08-22T03:04:33.134Z,85.55
2022-08-22T03:05:33.159Z,85.90
2022-08-22T03:06:33.129Z,86.41
2022-08-22T03:07:33.129Z,87.23
2022-08-22T03:08:33.063Z,87.73
2022-08-22T03:09:33.074Z,88.28
2022-08-22T03:10:33.055Z,88.32
2022-08-22T03:11:33.062Z,88.93
2022-08-22T03:12:33.115Z,89.79
2022-08-22T03:13:33.043Z,89.64
2022-08-22T03:14:33.082Z,89.24
2022-08-22T03:15:33.105Z,88.53
2022-08-22T03:16:33.089Z,88.02
2022-08-22T03:17:33.030Z,87.77
2022-08-22T03:18:32.984Z,87.41
2022-08-22T03:19:33.014Z,86.76
2022-08-22T03:20:33.042Z,87.06
2022-08-22T03:21:33.022Z,87.02
2022-08-22T03:22:32.949Z,86.92
2022-08-22T03:23:32.924Z,87.02
2022-08-22T03:24:32.884Z,87.63
2022-08-22T03:25:32.963Z,87.84
2022-08-22T03:26:32.883Z,88.13
2022-08-22T03:27:33.460Z,87.73
2022-08-22T03:28:32.865Z,87.93
2022-08-22T03:29:32.837Z,87.63
2022-08-22T03:30:32.876Z,87.73
2022-08-22T03:31:32.866Z,87.84
2022-08-22T03:32:32.837Z,87.57
2022-08-22T03:33:32.853Z,88.08
2022-08-22T03:34:32.869Z,88.18
2022-08-22T03:35:32.813Z,88.18
2022-08-22T03:36:32.936Z,88.59
2022-08-22T03:37:32.913Z,88.69
2022-08-22T03:38:32.890Z,88.59
2022-08-22T03:39:32.913Z,88.63
2022-08-22T03:40:32.844Z,88.02
2022-08-22T03:41:32.887Z,88.22
2022-08-22T03:42:32.848Z,88.53
2022-08-22T03:43:32.838Z,88.32
2022-08-22T03:44:32.828Z,88.63
2022-08-22T03:45:32.740Z,88.98
2022-08-22T03:46:32.858Z,89.34
2022-08-22T03:47:32.849Z,89.59
2022-08-22T03:48:32.807Z,90.20
2022-08-22T03:49:32.811Z,90.50
2022-08-22T03:50:32.862Z,90.09
2022-08-22T03:51:32.774Z,90.81
2022-08-22T03:52:32.821Z,90.81
2022-08-22T03:53:32.807Z,89.94
2022-08-22T03:54:32.743Z,89.99
2022-08-22T03:55:32.742Z,89.99
2022-08-22T03:56:32.730Z,89.18
2022-08-22T03:57:32.823Z,89.28
2022-08-22T03:58:32.759Z,88.77
2022-08-22T03:59:32.778Z,88.57
2022-08-22T04:00:32.857Z,88.67
2022-08-22T04:01:32.713Z,88.46
2022-08-22T04:02:43.296Z,88.57
2022-08-22T04:03:33.779Z,88.77
2022-08-22T04:04:32.706Z,89.38
2022-08-22T04:05:32.685Z,88.87
2022-08-22T04:06:32.714Z,88.46
2022-08-22T04:07:33.469Z,89.28
2022-08-22T04:08:33.737Z,89.28
2022-08-22T04:09:32.647Z,89.28
2022-08-22T04:10:32.649Z,89.59
2022-08-22T04:11:32.640Z,88.67
2022-08-22T04:12:32.628Z,88.57
2022-08-22T04:13:32.657Z,88.61
2022-08-22T04:14:32.651Z,88.87
2022-08-22T04:15:32.627Z,88.77
2022-08-22T04:16:32.652Z,89.38
2022-08-22T04:17:32.648Z,88.36
2022-08-22T04:18:33.434Z,87.92
2022-08-22T04:19:32.539Z,88.12
2022-08-22T04:20:32.505Z,87.51
2022-08-22T04:21:32.501Z,87.51
2022-08-22T04:22:32.520Z,87.51
2022-08-22T04:23:32.500Z,87.41
2022-08-22T04:24:32.492Z,86.90
2022-08-22T04:25:32.491Z,86.90
2022-08-22T04:26:32.469Z,87.35
2022-08-22T04:27:32.450Z,87.85
2022-08-22T04:28:32.447Z,87.65
2022-08-22T04:29:32.712Z,88.06
2022-08-22T04:30:32.465Z,88.06
2022-08-22T04:31:32.500Z,87.96
2022-08-22T04:32:32.504Z,88.46
2022-08-22T04:33:32.512Z,88.06
2022-08-22T04:34:32.489Z,87.85
2022-08-22T04:35:32.515Z,87.65
2022-08-22T04:36:32.483Z,87.85
2022-08-22T04:37:32.456Z,87.65
2022-08-22T04:38:32.460Z,87.45
2022-08-22T04:39:32.463Z,87.55
2022-08-22T04:40:32.504Z,87.14
2022-08-22T04:41:32.476Z,87.45
2022-08-22T04:42:33.449Z,87.75
2022-08-22T04:43:33.413Z,88.10
2022-08-22T04:44:32.461Z,88.20
2022-08-22T04:45:32.397Z,88.16
2022-08-22T04:46:36.734Z,87.96
2022-08-22T04:47:32.385Z,87.65
2022-08-22T04:48:32.510Z,87.65
2022-08-22T04:49:32.373Z,87.85
2022-08-22T04:50:32.395Z,88.20
2022-08-22T04:51:32.363Z,87.90
2022-08-22T04:52:32.348Z,87.96
2022-08-22T04:53:32.337Z,87.85
2022-08-22T04:54:32.325Z,87.55
2022-08-22T04:55:32.342Z,87.14
2022-08-22T04:56:32.332Z,87.55
2022-08-22T04:57:32.345Z,87.55
2022-08-22T04:58:32.292Z,87.75
2022-08-22T04:59:33.521Z,88.61
2022-08-22T05:00:32.344Z,88.61
2022-08-22T05:01:32.345Z,88.20
2022-08-22T05:02:32.278Z,88.06
2022-08-22T05:03:32.304Z,88.06
2022-08-22T05:04:32.268Z,87.75
2022-08-22T05:05:32.276Z,87.55
2022-08-22T05:06:32.251Z,87.55
2022-08-22T05:07:35.878Z,87.75
2022-08-22T05:08:32.178Z,87.61
2022-08-22T05:09:32.159Z,87.41
2022-08-22T05:10:32.175Z,87.65
2022-08-22T05:11:32.134Z,87.41
2022-08-22T05:12:32.140Z,87.00
2022-08-22T05:13:32.143Z,87.00
2022-08-22T05:14:32.105Z,87.41
2022-08-22T05:15:32.120Z,87.16
2022-08-22T05:16:32.108Z,87.00
2022-08-22T05:17:32.225Z,86.76
2022-08-22T05:18:32.124Z,86.55
2022-08-22T05:19:32.450Z,86.35
2022-08-22T05:20:33.198Z,85.90
2022-08-22T05:21:32.062Z,85.60
2022-08-22T05:22:32.140Z,85.49
2022-08-22T05:23:32.085Z,85.19
2022-08-22T05:24:32.161Z,85.15
2022-08-22T05:25:32.171Z,84.64
2022-08-22T05:26:32.154Z,84.44
2022-08-22T05:27:32.115Z,84.34
2022-08-22T05:28:32.141Z,84.50
2022-08-22T05:29:32.116Z,84.03
2022-08-22T05:30:32.165Z,84.40
2022-08-22T05:31:32.115Z,84.09
2022-08-22T05:33:38.748Z,84.30
2022-08-22T05:34:39.853Z,84.05
2022-08-22T05:35:39.878Z,83.54
2022-08-22T05:36:39.900Z,84.12
2022-08-22T05:37:39.826Z,83.24
2022-08-22T05:38:39.909Z,82.70
2022-08-22T05:39:39.922Z,82.70
2022-08-22T05:40:39.853Z,83.04
2022-08-22T05:41:39.851Z,82.29
2022-08-22T05:42:39.818Z,80.26
2022-08-22T05:43:39.815Z,81.27
2022-08-22T05:44:39.866Z,81.48
2022-08-22T05:45:39.797Z,81.95
2022-08-22T05:46:39.906Z,81.88
2022-08-22T05:47:39.841Z,82.05
2022-08-22T05:48:39.844Z,82.90
2022-08-22T05:49:39.888Z,82.35
2022-08-22T05:50:39.843Z,82.31
2022-08-22T05:51:39.857Z,82.15
2022-08-22T05:52:39.857Z,82.86
2022-08-22T05:53:39.810Z,82.96
2022-08-22T05:54:39.863Z,82.72
2022-08-22T05:55:39.834Z,82.82
2022-08-22T05:56:39.814Z,82.52
2022-08-22T05:57:39.831Z,83.17
2022-08-22T05:58:39.854Z,83.87
2022-08-22T05:59:39.769Z,84.58
2022-08-22T06:00:39.858Z,85.39
2022-08-22T06:01:39.852Z,85.30
2022-08-22T06:02:39.855Z,85.46
2022-08-22T06:03:39.754Z,84.14
2022-08-22T06:04:39.796Z,83.49
2022-08-22T06:05:39.775Z,84.10
2022-08-22T06:06:39.713Z,83.63
2022-08-22T06:07:39.723Z,82.52
2022-08-22T06:08:39.689Z,82.38
2022-08-22T06:09:39.616Z,83.09
2022-08-22T06:10:39.694Z,83.65
2022-08-22T06:11:39.635Z,82.95
2022-08-22T06:12:39.625Z,82.54
2022-08-22T06:13:41.223Z,81.69
2022-08-22T06:14:39.578Z,81.90
2022-08-22T06:15:40.677Z,81.69
2022-08-22T06:16:39.579Z,80.24
2022-08-22T06:17:40.578Z,80.34
2022-08-22T06:18:39.553Z,79.79
2022-08-22T06:19:39.573Z,80.00
2022-08-22T06:20:39.519Z,79.19
2022-08-22T06:21:39.787Z,78.99
2022-08-22T06:22:39.494Z,78.99
2022-08-22T06:23:40.539Z,78.88
2022-08-22T06:24:39.539Z,79.29
2022-08-22T06:25:39.738Z,78.24
2022-08-22T06:26:39.683Z,77.43
2022-08-22T06:27:39.574Z,76.59
2022-08-22T06:28:54.780Z,76.08
2022-08-22T06:29:40.502Z,76.18
2022-08-22T06:30:39.586Z,76.59
2022-08-22T06:31:39.601Z,76.08
2022-08-22T06:32:58.805Z,76.08
2022-08-22T06:33:43.293Z,77.09
2022-08-22T06:34:40.506Z,76.48
2022-08-22T06:35:39.534Z,75.17
2022-08-22T06:36:39.512Z,75.37
2022-08-22T06:37:39.916Z,76.39
2022-08-22T06:38:39.581Z,76.25
2022-08-22T06:39:39.507Z,76.45
2022-08-22T06:40:39.553Z,75.44
2022-08-22T06:41:39.493Z,74.87
2022-08-22T06:42:39.593Z,75.34
2022-08-22T06:43:39.492Z,75.04
2022-08-22T06:44:39.503Z,75.74
2022-08-22T06:45:39.388Z,74.73
2022-08-22T06:46:39.512Z,73.93
2022-08-22T06:47:39.473Z,75.31
2022-08-22T06:48:39.566Z,75.81
2022-08-22T06:49:39.459Z,73.85
2022-08-22T06:50:39.426Z,73.65
2022-08-22T06:51:39.408Z,74.36
2022-08-22T06:52:39.418Z,73.55
2022-08-22T06:53:42.347Z,72.34
2022-08-22T06:54:40.381Z,71.91
2022-08-22T06:55:39.407Z,73.22
2022-08-22T06:56:39.398Z,72.51
2022-08-22T06:57:39.387Z,72.71
2022-08-22T06:58:39.397Z,73.35
2022-08-22T06:59:39.385Z,74.36
2022-08-22T07:00:39.352Z,73.58
2022-08-22T07:01:39.405Z,73.79
2022-08-22T07:02:39.363Z,75.27
2022-08-22T07:03:39.405Z,74.02
2022-08-22T07:04:39.385Z,73.52
2022-08-22T07:05:39.394Z,72.41
2022-08-22T07:06:39.309Z,72.91
2022-08-22T07:07:39.388Z,74.36
2022-08-22T07:08:39.370Z,75.03
2022-08-22T07:09:39.347Z,74.39
2022-08-22T07:10:39.302Z,73.55
2022-08-22T07:11:39.301Z,72.34
2022-08-22T07:12:39.256Z,73.35
2022-08-22T07:13:39.278Z,72.34
2022-08-22T07:14:39.427Z,72.20
2022-08-22T07:15:39.278Z,72.41
2022-08-22T07:16:39.287Z,72.37
2022-08-22T07:17:40.722Z,71.33
2022-08-22T07:18:40.255Z,70.23
2022-08-22T07:19:40.264Z,69.99
2022-08-22T07:20:39.243Z,69.22
2022-08-22T07:21:39.228Z,70.59
2022-08-22T07:22:39.092Z,69.15
2022-08-22T07:23:39.120Z,69.06
2022-08-22T07:24:39.109Z,68.82
2022-08-22T07:25:39.112Z,67.82
2022-08-22T07:26:39.064Z,67.28
2022-08-22T07:27:39.093Z,66.61
2022-08-22T07:28:51.207Z,67.35
2022-08-22T07:29:40.033Z,67.94
2022-08-22T07:30:39.093Z,67.24
2022-08-22T07:31:39.041Z,67.14
2022-08-22T07:32:39.039Z,68.45
2022-08-22T07:33:39.028Z,67.85
2022-08-22T07:34:38.974Z,67.94
2022-08-22T07:35:39.080Z,68.72
2022-08-22T07:36:39.015Z,67.08
2022-08-22T07:37:40.022Z,65.44
2022-08-22T07:38:39.022Z,65.61
2022-08-22T07:39:39.129Z,65.01
2022-08-22T07:40:39.318Z,64.58
2022-08-22T07:41:39.062Z,65.01
2022-08-22T07:42:39.041Z,64.91
2022-08-22T07:43:39.020Z,64.37
2022-08-22T07:44:38.949Z,67.18
2022-08-22T07:45:38.942Z,64.78
2022-08-22T07:46:39.029Z,65.25
2022-08-22T07:47:39.022Z,64.54
2022-08-22T07:48:59.323Z,64.65
2022-08-22T07:49:40.918Z,63.92
2022-08-22T07:50:39.913Z,63.18
2022-08-22T07:51:39.099Z,63.78
2022-08-22T07:52:38.986Z,63.68
2022-08-22T07:53:39.063Z,61.88
2022-08-22T07:54:38.959Z,62.31
2022-08-22T07:55:49.516Z,63.45
2022-08-22T07:56:39.885Z,63.14
2022-08-22T07:57:38.939Z,64.04
2022-08-22T07:58:38.928Z,64.15
2022-08-22T07:59:38.921Z,63.78
2022-08-22T08:00:38.965Z,64.58
2022-08-22T08:01:38.975Z,64.88
2022-08-22T08:02:38.976Z,64.98
2022-08-22T08:03:38.940Z,65.65
2022-08-22T08:04:40.554Z,63.64
2022-08-22T08:05:39.945Z,62.92
2022-08-22T08:06:38.934Z,62.98
2022-08-22T08:07:38.975Z,63.58
2022-08-22T08:08:38.896Z,61.58
2022-08-22T08:09:38.898Z,61.58
2022-08-22T08:10:38.873Z,61.68
2022-08-22T08:11:38.872Z,61.68
2022-08-22T08:12:38.951Z,62.78
2022-08-22T08:13:38.829Z,61.58
2022-08-22T08:14:38.916Z,62.58
2022-08-22T08:15:38.826Z,60.48
2022-08-22T08:16:38.901Z,60.58
2022-08-22T08:17:38.794Z,61.78
2022-08-22T08:18:38.819Z,61.65
2022-08-22T08:19:38.795Z,60.25
2022-08-22T08:20:38.764Z,60.65
2022-08-22T08:21:38.817Z,60.72
2022-08-22T08:22:38.810Z,60.19
2022-08-22T08:23:39.664Z,60.79
2022-08-22T08:24:40.060Z,59.30
2022-08-22T08:25:38.748Z,58.89
2022-08-22T08:26:38.714Z,59.89
2022-08-22T08:27:38.799Z,59.49
2022-08-22T08:28:38.810Z,59.27
2022-08-22T08:29:38.684Z,59.53
2022-08-22T08:30:38.740Z,57.44
2022-08-22T08:31:42.642Z,57.46
2022-08-22T08:32:39.726Z,57.97
2022-08-22T08:33:38.746Z,60.14
2022-08-22T08:34:38.728Z,59.74
2022-08-22T08:36:02.823Z,58.71
2022-08-22T08:36:39.577Z,57.58
2022-08-22T08:37:38.761Z,58.28
2022-08-22T08:38:38.635Z,58.25
2022-08-22T08:39:38.726Z,56.76
2022-08-22T08:40:38.637Z,58.45
2022-08-22T08:41:39.726Z,56.73
2022-08-22T08:42:38.511Z,56.73
2022-08-22T08:43:38.515Z,55.80
2022-08-22T08:44:38.720Z,54.81
2022-08-22T08:45:38.560Z,55.21
2022-08-22T08:46:38.629Z,55.41
2022-08-22T08:48:39.502Z,55.28
2022-08-22T08:50:39.524Z,54.86
2022-08-22T08:51:38.506Z,56.09
2022-08-22T08:52:38.437Z,56.51
2022-08-22T08:53:38.442Z,56.79
2022-08-22T08:54:38.426Z,56.41
2022-08-22T08:55:38.425Z,57.31
2022-08-22T08:56:38.431Z,56.94
2022-08-22T08:57:38.437Z,57.01
2022-08-22T08:58:38.432Z,58.98
2022-08-22T08:59:40.410Z,56.46
2022-08-22T09:00:39.467Z,56.33
2022-08-22T09:01:38.469Z,56.83
2022-08-22T09:02:38.555Z,55.61
2022-08-22T09:03:38.397Z,56.38
2022-08-22T09:04:38.364Z,54.98
2022-08-22T09:05:38.561Z,54.86
2022-08-22T09:06:38.491Z,55.05
2022-08-22T09:07:38.439Z,54.36
2022-08-22T09:08:38.432Z,54.66
2022-08-22T09:09:38.470Z,54.73
2022-08-22T09:10:38.440Z,53.94
2022-08-22T09:11:38.490Z,53.14
2022-08-22T09:12:38.419Z,53.71
2022-08-22T09:13:40.685Z,55.00
2022-08-22T09:14:38.408Z,51.12
2022-08-22T09:15:38.903Z,51.10
2022-08-22T09:16:38.408Z,52.49
2022-08-22T09:17:39.391Z,51.79
2022-08-22T09:18:38.355Z,51.10
2022-08-22T09:19:38.378Z,51.20
2022-08-22T09:20:38.373Z,51.70
2022-08-22T09:21:38.433Z,51.42
2022-08-22T09:22:50.629Z,51.79
2022-08-22T09:23:39.250Z,51.20
2022-08-22T09:24:38.335Z,52.69
2022-08-22T09:25:40.018Z,51.28
2022-08-22T09:26:38.314Z,51.17
2022-08-22T09:27:38.391Z,51.07
2022-08-22T09:28:38.298Z,51.28
2022-08-22T09:29:55.248Z,50.88
2022-08-22T09:30:39.192Z,51.84
2022-08-22T09:32:39.344Z,49.88
2022-08-22T09:33:38.286Z,49.78
2022-08-22T09:34:38.255Z,51.70
2022-08-22T09:35:38.234Z,52.49
2022-08-22T09:36:38.224Z,51.79
2022-08-22T09:37:38.264Z,52.09
2022-08-22T09:38:38.306Z,52.49
2022-08-22T09:39:38.276Z,52.17
2022-08-22T09:40:15.238Z,56.18
2022-08-22T09:40:16.219Z,55.31
2022-08-22T09:40:38.262Z,52.14
2022-08-22T09:41:38.206Z,51.72
2022-08-22T09:42:38.214Z,51.15
2022-08-22T09:43:38.333Z,50.16
2022-08-22T09:44:39.708Z,51.52
2022-08-22T09:45:38.092Z,49.74
2022-08-22T09:46:38.158Z,50.21
2022-08-22T09:47:39.298Z,50.21
2022-08-22T09:48:38.519Z,50.51
2022-08-22T09:49:38.154Z,50.60
2022-08-22T09:50:38.120Z,49.69
2022-08-22T09:51:38.111Z,48.72
2022-08-22T09:52:38.148Z,51.18
2022-08-22T09:53:38.178Z,49.17
2022-08-22T09:54:38.203Z,48.87
2022-08-22T09:55:38.076Z,49.07
2022-08-22T09:56:38.128Z,48.97
2022-08-22T09:57:38.124Z,49.07
2022-08-22T09:58:41.517Z,48.99
2022-08-22T09:59:39.106Z,49.79
2022-08-22T10:00:37.964Z,51.47
2022-08-22T10:01:37.983Z,50.48
2022-08-22T10:02:43.675Z,49.37
2022-08-22T10:03:38.927Z,49.17
2022-08-22T10:04:37.939Z,48.00
2022-08-22T10:05:43.627Z,48.40
2022-08-22T10:06:38.951Z,48.40
2022-08-22T10:07:37.918Z,50.95
2022-08-22T10:08:37.948Z,49.84
2022-08-22T10:09:37.926Z,48.05
2022-08-22T10:10:37.991Z,48.47
2022-08-22T10:11:38.880Z,48.10
2022-08-22T10:12:37.881Z,49.39
2022-08-22T10:13:37.948Z,49.27
2022-08-22T10:14:37.863Z,49.07
2022-08-22T10:15:37.923Z,48.18
2022-08-22T10:16:37.844Z,47.66
2022-08-22T10:17:40.907Z,45.97
2022-08-22T10:18:37.837Z,45.87
2022-08-22T10:19:38.814Z,47.14
2022-08-22T10:20:37.831Z,46.94
2022-08-22T10:21:37.981Z,45.53
2022-08-22T10:22:37.904Z,46.62
2022-08-22T10:23:37.903Z,46.52
2022-08-22T10:24:44.133Z,45.75
2022-08-22T10:25:42.144Z,46.23
2022-08-22T10:26:38.927Z,44.64
2022-08-22T10:27:41.218Z,44.72
2022-08-22T10:28:37.782Z,45.41
2022-08-22T10:29:37.864Z,44.80
2022-08-22T10:30:37.867Z,44.31
2022-08-22T10:31:57.060Z,44.90
2022-08-22T10:32:38.764Z,41.73
2022-08-22T10:33:37.851Z,41.63
2022-08-22T10:34:37.868Z,42.94
2022-08-22T10:35:37.857Z,42.35
2022-08-22T10:36:37.849Z,43.63
2022-08-22T10:37:39.578Z,43.43
2022-08-22T10:38:46.339Z,46.60
2022-08-22T10:39:38.747Z,44.13
2022-08-22T10:40:38.794Z,41.44
2022-08-22T10:41:37.795Z,42.44
2022-08-22T10:42:37.818Z,42.62
2022-08-22T10:43:37.829Z,42.52
2022-08-22T10:44:37.755Z,44.78
2022-08-22T10:45:37.667Z,42.70
2022-08-22T10:46:37.726Z,41.31
2022-08-22T10:47:37.820Z,41.52
2022-08-22T10:48:38.738Z,41.61
2022-08-22T10:49:37.766Z,39.04
2022-08-22T10:50:37.727Z,39.56
2022-08-22T10:51:37.770Z,41.24
2022-08-22T10:52:37.725Z,41.83
2022-08-22T10:53:37.669Z,43.12
2022-08-22T10:54:37.704Z,41.63
2022-08-22T10:55:37.725Z,43.51
2022-08-22T10:56:37.671Z,42.62
2022-08-22T10:57:37.695Z,41.63
2022-08-22T10:58:37.780Z,44.01
2022-08-22T10:59:37.665Z,42.22
2022-08-22T11:00:37.729Z,42.99
2022-08-22T11:01:42.143Z,42.30
2022-08-22T11:02:37.627Z,41.71
2022-08-22T11:03:37.831Z,42.38
2022-08-22T11:04:37.608Z,41.79
2022-08-22T11:05:37.613Z,41.99
2022-08-22T11:06:37.581Z,40.11
2022-08-22T11:07:37.566Z,40.21
2022-08-22T11:08:37.702Z,40.70
2022-08-22T11:09:37.579Z,40.19
2022-08-22T11:10:37.621Z,39.89
2022-08-22T12:28:11.376Z,36.55
2022-08-22T12:29:15.614Z,37.34
2022-08-22T12:30:14.082Z,38.30
2022-08-22T12:31:12.551Z,36.90
2022-08-22T12:32:12.516Z,39.37
2022-08-22T12:33:13.121Z,38.66
2022-08-22T12:34:12.495Z,36.99
2022-08-22T12:35:13.789Z,36.40
2022-08-22T12:36:18.171Z,36.40
2022-08-22T12:37:13.601Z,37.08
2022-08-22T12:38:29.080Z,36.69
2022-08-22T12:39:13.496Z,35.11
2022-08-22T12:40:12.513Z,35.21
2022-08-22T12:41:12.454Z,35.33
2022-08-22T12:42:12.458Z,36.41
2022-08-22T12:43:12.554Z,35.02
2022-08-22T12:44:16.492Z,35.99
2022-08-22T12:45:13.448Z,34.41
2022-08-22T12:46:13.304Z,34.82
2022-08-22T12:47:12.509Z,34.53
2022-08-22T12:48:12.532Z,35.90
2022-08-22T12:49:12.516Z,37.16
2022-08-22T12:50:12.734Z,34.18
2022-08-22T12:51:17.267Z,34.67
2022-08-22T12:52:13.392Z,34.28
2022-08-22T12:53:14.977Z,33.58
2022-08-22T12:54:13.392Z,32.50
2022-08-22T12:55:12.479Z,32.09
2022-08-22T12:56:12.434Z,32.78
2022-08-22T12:57:23.704Z,31.50
2022-08-22T12:58:13.353Z,29.83
2022-08-22T12:59:12.488Z,30.11
2022-08-22T13:00:12.392Z,28.95
2022-08-22T13:01:12.449Z,30.50
2022-08-22T13:02:12.428Z,30.50
2022-08-22T13:03:12.381Z,30.22
2022-08-22T13:04:12.394Z,29.03
2022-08-22T13:05:13.371Z,27.85
2022-08-22T13:06:15.147Z,29.03
2022-08-22T13:07:12.438Z,29.21
2022-08-22T13:08:12.350Z,28.93
2022-08-22T13:09:12.401Z,30.93
2022-08-22T13:10:12.385Z,30.33
2022-08-22T13:11:15.191Z,31.60
2022-08-22T13:12:13.252Z,30.40
2022-08-22T13:13:13.338Z,31.87
2022-08-22T13:14:19.624Z,31.47
2022-08-22T13:15:13.350Z,30.98
2022-08-22T13:16:12.358Z,30.98
2022-08-22T13:17:24.091Z,30.77
2022-08-22T13:18:29.253Z,31.06
2022-08-22T13:19:14.573Z,28.99
2022-08-22T13:20:12.325Z,30.11
2022-08-22T13:21:15.065Z,30.33
2022-08-22T13:22:13.284Z,31.53
2022-08-22T13:23:12.699Z,31.04
2022-08-22T13:24:12.232Z,31.73
2022-08-22T13:25:12.279Z,31.26
2022-08-22T13:26:12.234Z,31.13
2022-08-22T13:27:12.255Z,30.91
2022-08-22T13:28:12.282Z,30.99
2022-08-22T13:29:27.550Z,30.60
2022-08-22T13:30:14.171Z,30.60
2022-08-22T13:31:12.212Z,29.82
2022-08-22T13:32:12.201Z,30.63
2022-08-22T13:33:12.405Z,33.51
2022-08-22T13:34:12.249Z,31.60
2022-08-22T13:35:12.163Z,30.25
2022-08-22T13:36:12.155Z,29.27
2022-08-22T13:37:12.161Z,31.03
2022-08-22T13:38:12.498Z,31.24
2022-08-22T13:39:12.233Z,30.26
2022-08-22T13:40:12.266Z,30.46
2022-08-22T13:41:12.188Z,28.28
2022-08-22T13:42:27.713Z,28.36
2022-08-22T13:43:13.151Z,28.01
2022-08-22T13:44:12.151Z,27.02
2022-08-22T13:45:12.114Z,28.05
2022-08-22T13:46:12.078Z,27.26
2022-08-22T13:47:14.668Z,26.54
2022-08-22T13:48:13.007Z,25.54
2022-08-22T13:49:12.047Z,24.76
2022-08-22T13:50:11.987Z,25.21
2022-08-22T13:51:13.142Z,23.26
2022-08-22T13:52:28.771Z,24.61
2022-08-22T13:53:13.050Z,22.75
2022-08-22T13:54:12.012Z,22.26
2022-08-22T13:55:12.465Z,22.95
2022-08-22T13:56:15.801Z,23.50
2022-08-22T13:57:11.945Z,25.31
2022-08-22T13:58:12.141Z,21.55
2022-08-22T13:59:11.902Z,23.49
2022-08-22T14:00:12.309Z,22.50
2022-08-22T14:01:12.950Z,23.17
2022-08-22T14:02:17.979Z,20.84
2022-08-22T14:03:12.883Z,21.91
2022-08-22T14:04:21.869Z,22.00
2022-08-22T14:05:12.927Z,21.71
2022-08-22T14:06:37.316Z,20.74
2022-08-22T14:07:12.866Z,20.93
2022-08-22T14:08:12.577Z,19.58
2022-08-22T14:09:11.837Z,20.17
2022-08-22T14:10:14.972Z,20.86